URO750 PANC-RJCN
Flight info
| Callsign | URO750 |
|---|---|
| Flight time | 6h 18m |
| Altitude | 34000 |
| Route | FFITZ4 FFITZ DCT NODLE R220 NICHO/N0485F350 R220 NOLTI/N0478F360 R220 NUZAN/N0489F370 R220 NANNO/N0476F380 OTR1 NOSLY TCE |
| Aircraft | A346/H-SDE2E3FGHIJ3J4J5M1RWXY/LB1D1 |
Departure
| Time | 2026-05-07 18:13 |
|---|---|
| Airport | Ted Stevens Anchorage International Airport (PANC) |
Arrival
| Time | 2026-05-08 00:31 |
|---|---|
| Airport | Nakashibetsu Airport (RJCN) |
| Time | Latitude | Longitude | Altitude | Speed | Heading |
|---|---|---|---|---|---|
| 2026-05-07 18:01 | 61.17512 | -149.98782 | 114 ft | 0 kts | 27° |
| 2026-05-07 18:08 | 61.17524 | -149.98765 | 112 ft | 9 kts | 44° |
| 2026-05-07 18:08 | 61.17483 | -149.98612 | 114 ft | 16 kts | 147° |
| 2026-05-07 18:08 | 61.17382 | -149.98613 | 117 ft | 15 kts | 204° |
| 2026-05-07 18:08 | 61.17294 | -149.98730 | 116 ft | 15 kts | 214° |
| 2026-05-07 18:09 | 61.17206 | -149.98766 | 118 ft | 13 kts | 160° |
| 2026-05-07 18:09 | 61.17121 | -149.98588 | 120 ft | 26 kts | 101° |
| 2026-05-07 18:09 | 61.17116 | -149.98172 | 123 ft | 30 kts | 90° |
| 2026-05-07 18:09 | 61.17116 | -149.97739 | 118 ft | 31 kts | 90° |
| 2026-05-07 18:10 | 61.17125 | -149.97290 | 111 ft | 32 kts | 86° |
| 2026-05-07 18:10 | 61.17127 | -149.96825 | 105 ft | 32 kts | 90° |
| 2026-05-07 18:10 | 61.17127 | -149.96359 | 105 ft | 32 kts | 90° |
| 2026-05-07 18:10 | 61.17128 | -149.95893 | 105 ft | 32 kts | 90° |
| 2026-05-07 18:11 | 61.17129 | -149.95430 | 105 ft | 32 kts | 90° |
| 2026-05-07 18:11 | 61.17129 | -149.95126 | 104 ft | 30 kts | 90° |
| 2026-05-07 18:11 | 61.17080 | -149.94753 | 104 ft | 20 kts | 163° |
| 2026-05-07 18:11 | 61.16995 | -149.94852 | 111 ft | 12 kts | 254° |
| 2026-05-07 18:12 | 61.16983 | -149.95042 | 109 ft | 22 kts | 267° |
| 2026-05-07 18:12 | 61.16982 | -149.95794 | 109 ft | 82 kts | 270° |
| 2026-05-07 18:12 | 61.16979 | -149.97366 | 112 ft | 134 kts | 270° |
| 2026-05-07 18:12 | 61.16976 | -149.99629 | 138 ft | 178 kts | 270° |
| 2026-05-07 18:13 | 61.16996 | -150.02318 | 500 ft | 185 kts | 268° |
| 2026-05-07 18:13 | 61.17000 | -150.04995 | 1071 ft | 187 kts | 267° |
| 2026-05-07 18:13 | 61.16976 | -150.07672 | 1622 ft | 191 kts | 267° |
| 2026-05-07 18:13 | 61.16952 | -150.10556 | 1931 ft | 206 kts | 267° |
| 2026-05-07 18:14 | 61.16926 | -150.13636 | 2243 ft | 221 kts | 267° |
| 2026-05-07 18:14 | 61.16897 | -150.16944 | 2540 ft | 238 kts | 267° |
| 2026-05-07 18:14 | 61.16865 | -150.20484 | 2886 ft | 254 kts | 267° |
| 2026-05-07 18:14 | 61.16831 | -150.24209 | 3439 ft | 260 kts | 266° |
| 2026-05-07 18:15 | 61.16797 | -150.27979 | 4207 ft | 260 kts | 266° |
| 2026-05-07 18:15 | 61.16773 | -150.30477 | 4727 ft | 260 kts | 266° |
| 2026-05-07 18:15 | 61.16735 | -150.34252 | 5453 ft | 262 kts | 266° |
| 2026-05-07 18:15 | 61.16695 | -150.38054 | 6176 ft | 265 kts | 265° |
| 2026-05-07 18:16 | 61.16654 | -150.41885 | 6883 ft | 267 kts | 265° |
| 2026-05-07 18:16 | 61.16672 | -150.45752 | 7591 ft | 271 kts | 273° |
| 2026-05-07 18:16 | 61.17074 | -150.49611 | 8323 ft | 276 kts | 286° |
| 2026-05-07 18:16 | 61.17783 | -150.53329 | 9074 ft | 279 kts | 290° |
| 2026-05-07 18:17 | 61.18565 | -150.57060 | 9822 ft | 281 kts | 290° |
| 2026-05-07 18:17 | 61.19337 | -150.60757 | 10457 ft | 285 kts | 290° |
| 2026-05-07 18:17 | 61.20144 | -150.64687 | 10800 ft | 300 kts | 290° |
| 2026-05-07 18:17 | 61.20995 | -150.68890 | 11104 ft | 316 kts | 290° |
| 2026-05-07 18:18 | 61.21910 | -150.73350 | 11416 ft | 332 kts | 292° |
| 2026-05-07 18:18 | 61.22997 | -150.77727 | 11715 ft | 349 kts | 297° |
| 2026-05-07 18:18 | 61.24349 | -150.82071 | 11983 ft | 365 kts | 302° |
| 2026-05-07 18:18 | 61.25862 | -150.86425 | 12482 ft | 374 kts | 303° |
| 2026-05-07 18:19 | 61.27407 | -150.90790 | 13228 ft | 375 kts | 303° |
| 2026-05-07 18:19 | 61.28951 | -150.95180 | 13961 ft | 377 kts | 303° |
| 2026-05-07 18:19 | 61.30498 | -150.99615 | 14575 ft | 380 kts | 302° |
| 2026-05-07 18:19 | 61.31819 | -151.04401 | 15143 ft | 378 kts | 288° |
| 2026-05-07 18:20 | 61.32430 | -151.09689 | 15766 ft | 374 kts | 272° |
| 2026-05-07 18:20 | 61.32377 | -151.15081 | 16410 ft | 372 kts | 263° |
| 2026-05-07 18:20 | 61.32128 | -151.20478 | 17077 ft | 374 kts | 262° |
| 2026-05-07 18:20 | 61.31868 | -151.25817 | 17699 ft | 376 kts | 262° |
| 2026-05-07 18:21 | 61.31607 | -151.31256 | 18290 ft | 379 kts | 262° |
| 2026-05-07 18:21 | 61.31344 | -151.36815 | 18835 ft | 381 kts | 262° |
| 2026-05-07 18:21 | 61.31091 | -151.42250 | 19359 ft | 383 kts | 262° |
| 2026-05-07 18:21 | 61.30834 | -151.47776 | 19892 ft | 385 kts | 262° |
| 2026-05-07 18:22 | 61.30574 | -151.53347 | 20423 ft | 387 kts | 262° |
| 2026-05-07 18:22 | 61.30397 | -151.57130 | 20775 ft | 388 kts | 262° |
| 2026-05-07 18:22 | 61.30047 | -151.64563 | 21461 ft | 391 kts | 262° |
| 2026-05-07 18:22 | 61.29778 | -151.70203 | 21980 ft | 393 kts | 262° |
| 2026-05-07 18:23 | 61.29506 | -151.75884 | 22491 ft | 395 kts | 262° |
| 2026-05-07 18:23 | 61.29228 | -151.81608 | 22997 ft | 397 kts | 262° |
| 2026-05-07 18:23 | 61.28946 | -151.87349 | 23486 ft | 400 kts | 262° |
| 2026-05-07 18:23 | 61.28661 | -151.93127 | 23921 ft | 402 kts | 262° |
| 2026-05-07 18:24 | 61.28440 | -151.98893 | 24324 ft | 405 kts | 264° |
| 2026-05-07 18:24 | 61.28354 | -152.04798 | 24719 ft | 407 kts | 267° |
| 2026-05-07 18:24 | 61.28374 | -152.10727 | 25106 ft | 410 kts | 268° |
| 2026-05-07 18:24 | 61.28403 | -152.16683 | 25504 ft | 412 kts | 268° |
| 2026-05-07 18:25 | 61.28432 | -152.22668 | 25880 ft | 415 kts | 268° |
| 2026-05-07 18:25 | 61.28460 | -152.28705 | 26249 ft | 417 kts | 268° |
| 2026-05-07 18:25 | 61.28485 | -152.34777 | 26629 ft | 419 kts | 268° |
| 2026-05-07 18:25 | 61.28507 | -152.40898 | 26972 ft | 422 kts | 268° |
| 2026-05-07 18:26 | 61.28527 | -152.47016 | 27325 ft | 424 kts | 268° |
| 2026-05-07 18:26 | 61.28543 | -152.53170 | 27646 ft | 426 kts | 268° |
| 2026-05-07 18:26 | 61.28557 | -152.59372 | 28055 ft | 428 kts | 268° |
| 2026-05-07 18:26 | 61.28569 | -152.65580 | 28417 ft | 430 kts | 268° |
| 2026-05-07 18:27 | 61.28577 | -152.71849 | 28728 ft | 432 kts | 268° |
| 2026-05-07 18:27 | 61.28583 | -152.78020 | 29212 ft | 431 kts | 268° |
| 2026-05-07 18:27 | 61.28585 | -152.84316 | 29739 ft | 429 kts | 268° |
| 2026-05-07 18:27 | 61.28586 | -152.90461 | 30214 ft | 428 kts | 268° |
| 2026-05-07 18:28 | 61.28582 | -152.96649 | 30616 ft | 427 kts | 268° |
| 2026-05-07 18:28 | 61.28576 | -153.02853 | 30899 ft | 429 kts | 268° |
| 2026-05-07 18:28 | 61.28566 | -153.09078 | 31146 ft | 431 kts | 268° |
| 2026-05-07 18:28 | 61.28554 | -153.15327 | 31432 ft | 432 kts | 268° |
| 2026-05-07 18:29 | 61.28540 | -153.21601 | 31731 ft | 433 kts | 268° |
| 2026-05-07 18:29 | 61.28522 | -153.27935 | 32026 ft | 435 kts | 268° |
| 2026-05-07 18:29 | 61.28501 | -153.34226 | 32279 ft | 436 kts | 268° |
| 2026-05-07 18:29 | 61.28478 | -153.40500 | 32513 ft | 438 kts | 268° |
| 2026-05-07 18:30 | 61.28452 | -153.46872 | 32749 ft | 441 kts | 269° |
| 2026-05-07 18:30 | 61.28422 | -153.53300 | 32944 ft | 443 kts | 269° |
| 2026-05-07 18:30 | 61.28390 | -153.59737 | 33171 ft | 446 kts | 269° |
| 2026-05-07 18:30 | 61.28353 | -153.66216 | 33397 ft | 448 kts | 269° |
| 2026-05-07 18:31 | 61.28314 | -153.72717 | 33606 ft | 450 kts | 269° |
| 2026-05-07 18:31 | 61.28272 | -153.79250 | 33842 ft | 452 kts | 269° |
| 2026-05-07 18:31 | 61.28226 | -153.85802 | 34051 ft | 454 kts | 269° |
| 2026-05-07 18:32 | 61.28125 | -153.99025 | 34075 ft | 456 kts | 269° |
| 2026-05-07 18:32 | 61.28011 | -154.12187 | 34084 ft | 456 kts | 269° |
| 2026-05-07 18:33 | 61.27882 | -154.25421 | 34075 ft | 456 kts | 269° |
| 2026-05-07 18:33 | 61.27742 | -154.38646 | 34071 ft | 456 kts | 269° |
| 2026-05-07 18:34 | 61.27589 | -154.51822 | 34061 ft | 456 kts | 269° |
| 2026-05-07 18:34 | 61.27423 | -154.65024 | 34072 ft | 456 kts | 268° |
| 2026-05-07 18:35 | 61.27245 | -154.78126 | 34065 ft | 456 kts | 268° |
| 2026-05-07 18:35 | 61.27052 | -154.91436 | 34076 ft | 456 kts | 268° |
| 2026-05-07 18:36 | 61.26848 | -155.04575 | 34074 ft | 456 kts | 268° |
| 2026-05-07 18:36 | 61.26630 | -155.17784 | 34068 ft | 456 kts | 268° |
| 2026-05-07 18:37 | 61.26400 | -155.30968 | 34055 ft | 456 kts | 268° |
| 2026-05-07 18:37 | 61.26157 | -155.44172 | 34045 ft | 456 kts | 268° |
| 2026-05-07 18:38 | 61.25901 | -155.57375 | 34055 ft | 456 kts | 268° |
| 2026-05-07 18:38 | 61.25635 | -155.70484 | 34043 ft | 456 kts | 268° |
| 2026-05-07 18:39 | 61.25354 | -155.83668 | 34066 ft | 456 kts | 268° |
| 2026-05-07 18:39 | 61.25060 | -155.96868 | 34070 ft | 456 kts | 269° |
| 2026-05-07 18:40 | 61.25041 | -156.10177 | 34080 ft | 456 kts | 271° |
| 2026-05-07 18:40 | 61.25114 | -156.23287 | 34091 ft | 456 kts | 271° |
| 2026-05-07 18:41 | 61.25176 | -156.36509 | 34094 ft | 456 kts | 271° |
| 2026-05-07 18:41 | 61.25224 | -156.49714 | 34091 ft | 456 kts | 271° |
| 2026-05-07 18:42 | 61.25259 | -156.62947 | 34087 ft | 457 kts | 271° |
| 2026-05-07 18:42 | 61.25281 | -156.76153 | 34093 ft | 457 kts | 271° |
| 2026-05-07 18:43 | 61.25290 | -156.89392 | 34088 ft | 457 kts | 271° |
| 2026-05-07 18:43 | 61.25287 | -157.02558 | 34090 ft | 457 kts | 271° |
| 2026-05-07 18:44 | 61.25270 | -157.15811 | 34086 ft | 457 kts | 271° |
| 2026-05-07 18:44 | 61.25240 | -157.29064 | 34089 ft | 457 kts | 271° |
| 2026-05-07 18:45 | 61.25198 | -157.42230 | 34090 ft | 457 kts | 271° |
| 2026-05-07 18:45 | 61.25143 | -157.55458 | 34092 ft | 457 kts | 271° |
| 2026-05-07 18:46 | 61.25075 | -157.68698 | 34096 ft | 457 kts | 271° |
| 2026-05-07 18:46 | 61.24994 | -157.81885 | 34100 ft | 457 kts | 271° |
| 2026-05-07 18:47 | 61.24899 | -157.95225 | 34097 ft | 457 kts | 271° |
| 2026-05-07 18:47 | 61.24793 | -158.08377 | 34100 ft | 457 kts | 271° |
| 2026-05-07 18:48 | 61.24673 | -158.21607 | 34104 ft | 457 kts | 271° |
| 2026-05-07 18:48 | 61.24540 | -158.34859 | 34110 ft | 457 kts | 271° |
| 2026-05-07 18:49 | 61.24394 | -158.48105 | 34107 ft | 458 kts | 271° |
| 2026-05-07 18:49 | 61.24236 | -158.61347 | 34111 ft | 457 kts | 271° |
| 2026-05-07 18:50 | 61.24066 | -158.74486 | 34109 ft | 457 kts | 271° |
| 2026-05-07 18:50 | 61.23881 | -158.87703 | 34107 ft | 458 kts | 271° |
| 2026-05-07 18:51 | 61.23683 | -159.00947 | 34112 ft | 458 kts | 271° |
| 2026-05-07 18:51 | 61.23473 | -159.14186 | 34111 ft | 458 kts | 271° |
| 2026-05-07 18:52 | 61.23249 | -159.27433 | 34117 ft | 458 kts | 271° |
| 2026-05-07 18:52 | 61.23012 | -159.40701 | 34118 ft | 458 kts | 271° |
| 2026-05-07 18:53 | 61.22765 | -159.53869 | 34116 ft | 458 kts | 271° |
| 2026-05-07 18:53 | 61.22503 | -159.67114 | 34111 ft | 458 kts | 271° |
| 2026-05-07 18:54 | 61.22227 | -159.80402 | 34109 ft | 458 kts | 271° |
| 2026-05-07 18:54 | 61.21941 | -159.93563 | 34117 ft | 459 kts | 271° |
| 2026-05-07 18:55 | 61.21640 | -160.06799 | 34118 ft | 459 kts | 271° |
| 2026-05-07 18:55 | 61.21326 | -160.20056 | 34121 ft | 459 kts | 271° |
| 2026-05-07 18:56 | 61.20999 | -160.33311 | 34121 ft | 458 kts | 271° |
| 2026-05-07 18:56 | 61.20660 | -160.46534 | 34118 ft | 459 kts | 271° |
| 2026-05-07 18:57 | 61.20307 | -160.59807 | 34119 ft | 459 kts | 271° |
| 2026-05-07 18:57 | 61.19941 | -160.73059 | 34127 ft | 459 kts | 271° |
| 2026-05-07 18:58 | 61.19565 | -160.86221 | 34130 ft | 459 kts | 271° |
| 2026-05-07 18:58 | 61.19174 | -160.99452 | 34133 ft | 459 kts | 271° |
| 2026-05-07 18:59 | 61.18769 | -161.12697 | 34138 ft | 459 kts | 271° |
| 2026-05-07 18:59 | 61.18350 | -161.25987 | 34136 ft | 460 kts | 271° |
| 2026-05-07 19:00 | 61.17919 | -161.39236 | 34138 ft | 460 kts | 271° |
| 2026-05-07 19:00 | 61.17474 | -161.52504 | 34142 ft | 461 kts | 271° |
| 2026-05-07 19:01 | 61.17015 | -161.65818 | 34141 ft | 461 kts | 271° |
| 2026-05-07 19:01 | 61.16546 | -161.79019 | 34143 ft | 461 kts | 271° |
| 2026-05-07 19:02 | 61.16062 | -161.92299 | 34155 ft | 461 kts | 270° |
| 2026-05-07 19:02 | 61.15563 | -162.05625 | 34167 ft | 462 kts | 270° |
| 2026-05-07 19:03 | 61.15054 | -162.18897 | 34163 ft | 462 kts | 270° |
| 2026-05-07 19:03 | 61.14529 | -162.32215 | 34164 ft | 463 kts | 270° |
| 2026-05-07 19:04 | 61.13995 | -162.45430 | 34162 ft | 463 kts | 270° |
| 2026-05-07 19:04 | 61.13442 | -162.58769 | 34166 ft | 464 kts | 270° |
| 2026-05-07 19:05 | 61.12971 | -162.69930 | 34167 ft | 464 kts | 270° |
| 2026-05-07 19:05 | 61.12395 | -162.83202 | 34173 ft | 465 kts | 270° |
| 2026-05-07 19:06 | 61.11662 | -162.96554 | 34171 ft | 468 kts | 265° |
| 2026-05-07 19:06 | 61.09372 | -163.16357 | 34179 ft | 474 kts | 259° |
| 2026-05-07 19:07 | 61.07523 | -163.29526 | 34180 ft | 475 kts | 258° |
| 2026-05-07 19:07 | 61.05673 | -163.42632 | 34177 ft | 475 kts | 258° |
| 2026-05-07 19:08 | 61.03808 | -163.55762 | 34176 ft | 476 kts | 258° |
| 2026-05-07 19:08 | 61.01936 | -163.68849 | 34178 ft | 476 kts | 258° |
| 2026-05-07 19:09 | 61.00035 | -163.82036 | 34176 ft | 477 kts | 258° |
| 2026-05-07 19:09 | 60.98129 | -163.95155 | 34175 ft | 477 kts | 258° |
| 2026-05-07 19:10 | 60.96202 | -164.08305 | 34179 ft | 478 kts | 258° |
| 2026-05-07 19:10 | 60.94258 | -164.21471 | 34177 ft | 478 kts | 258° |
| 2026-05-07 19:11 | 60.92301 | -164.34620 | 34184 ft | 479 kts | 257° |
| 2026-05-07 19:11 | 60.90328 | -164.47779 | 34181 ft | 479 kts | 257° |
| 2026-05-07 19:12 | 60.88362 | -164.60786 | 34188 ft | 480 kts | 257° |
| 2026-05-07 19:12 | 60.86362 | -164.73923 | 34194 ft | 480 kts | 257° |
| 2026-05-07 19:13 | 60.84351 | -164.87036 | 34190 ft | 481 kts | 257° |
| 2026-05-07 19:13 | 60.82318 | -165.00165 | 34193 ft | 481 kts | 257° |
| 2026-05-07 19:14 | 60.80261 | -165.13344 | 34203 ft | 482 kts | 257° |
| 2026-05-07 19:14 | 60.78195 | -165.26473 | 34195 ft | 482 kts | 256° |
| 2026-05-07 19:15 | 60.76132 | -165.39497 | 34191 ft | 482 kts | 256° |
| 2026-05-07 19:15 | 60.74038 | -165.52620 | 34182 ft | 483 kts | 256° |
| 2026-05-07 19:16 | 60.71941 | -165.65667 | 34175 ft | 483 kts | 256° |
| 2026-05-07 19:16 | 60.69817 | -165.78785 | 34170 ft | 484 kts | 256° |
| 2026-05-07 19:17 | 60.67683 | -165.91872 | 34165 ft | 484 kts | 256° |
| 2026-05-07 19:17 | 60.65534 | -166.04947 | 34165 ft | 484 kts | 256° |
| 2026-05-07 19:18 | 60.63368 | -166.18040 | 34169 ft | 485 kts | 255° |
| 2026-05-07 19:18 | 60.61203 | -166.31025 | 34169 ft | 485 kts | 255° |
| 2026-05-07 19:19 | 60.59012 | -166.44080 | 34170 ft | 485 kts | 255° |
| 2026-05-07 19:19 | 60.56801 | -166.57158 | 34165 ft | 485 kts | 255° |
| 2026-05-07 19:20 | 60.54578 | -166.70209 | 34171 ft | 486 kts | 255° |
| 2026-05-07 19:20 | 60.52351 | -166.83193 | 34159 ft | 486 kts | 255° |
| 2026-05-07 19:21 | 60.50123 | -166.96098 | 34160 ft | 486 kts | 254° |
| 2026-05-07 19:21 | 60.47860 | -167.09107 | 34161 ft | 486 kts | 254° |
| 2026-05-07 19:22 | 60.45585 | -167.22097 | 34159 ft | 486 kts | 254° |
| 2026-05-07 19:22 | 60.43301 | -167.35050 | 34154 ft | 486 kts | 253° |
| 2026-05-07 19:23 | 60.41003 | -167.47992 | 34157 ft | 486 kts | 253° |
| 2026-05-07 19:23 | 60.38694 | -167.60908 | 34160 ft | 486 kts | 253° |
| 2026-05-07 19:24 | 60.36371 | -167.73817 | 34157 ft | 486 kts | 253° |
| 2026-05-07 19:24 | 60.34058 | -167.86581 | 34161 ft | 486 kts | 253° |
| 2026-05-07 19:25 | 60.31706 | -167.99470 | 34161 ft | 486 kts | 253° |
| 2026-05-07 19:25 | 60.29371 | -168.12307 | 34160 ft | 486 kts | 253° |
| 2026-05-07 19:26 | 60.27058 | -168.25180 | 34168 ft | 488 kts | 253° |
| 2026-05-07 19:26 | 60.25888 | -168.31667 | 34340 ft | 490 kts | 253° |
| 2026-05-07 19:26 | 60.24716 | -168.38131 | 34755 ft | 487 kts | 252° |
| 2026-05-07 19:27 | 60.23554 | -168.44514 | 35138 ft | 484 kts | 252° |
| 2026-05-07 19:27 | 60.22389 | -168.50888 | 35431 ft | 484 kts | 252° |
| 2026-05-07 19:27 | 60.21221 | -168.57262 | 35673 ft | 484 kts | 252° |
| 2026-05-07 19:27 | 60.20040 | -168.63683 | 35910 ft | 485 kts | 252° |
| 2026-05-07 19:28 | 60.18864 | -168.70053 | 36137 ft | 485 kts | 252° |
| 2026-05-07 19:28 | 60.17678 | -168.76454 | 36152 ft | 485 kts | 252° |
| 2026-05-07 19:28 | 60.15306 | -168.89191 | 36161 ft | 486 kts | 252° |
| 2026-05-07 19:29 | 60.12915 | -169.01955 | 36168 ft | 486 kts | 252° |
| 2026-05-07 19:29 | 60.10520 | -169.14649 | 36166 ft | 486 kts | 251° |
| 2026-05-07 19:30 | 60.08114 | -169.27322 | 36168 ft | 486 kts | 251° |
| 2026-05-07 19:30 | 60.05686 | -169.40028 | 36167 ft | 486 kts | 251° |
| 2026-05-07 19:31 | 60.03246 | -169.52715 | 36167 ft | 486 kts | 251° |
| 2026-05-07 19:31 | 60.00801 | -169.65349 | 36171 ft | 486 kts | 251° |
| 2026-05-07 19:32 | 59.98342 | -169.77972 | 36171 ft | 487 kts | 251° |
| 2026-05-07 19:32 | 59.95867 | -169.90596 | 36171 ft | 487 kts | 251° |
| 2026-05-07 19:33 | 59.93399 | -170.03102 | 36173 ft | 487 kts | 250° |
| 2026-05-07 19:33 | 59.90898 | -170.15699 | 36171 ft | 487 kts | 250° |
| 2026-05-07 19:34 | 59.88378 | -170.28310 | 36171 ft | 487 kts | 250° |
| 2026-05-07 19:34 | 59.85857 | -170.40850 | 36172 ft | 487 kts | 250° |
| 2026-05-07 19:35 | 59.83313 | -170.53425 | 36169 ft | 487 kts | 250° |
| 2026-05-07 19:35 | 59.80784 | -170.65846 | 36170 ft | 487 kts | 250° |
| 2026-05-07 19:36 | 59.78221 | -170.78361 | 36168 ft | 487 kts | 250° |
| 2026-05-07 19:36 | 59.75649 | -170.90838 | 36169 ft | 487 kts | 249° |
| 2026-05-07 19:37 | 59.73067 | -171.03290 | 36167 ft | 487 kts | 249° |
| 2026-05-07 19:37 | 59.70472 | -171.15731 | 36175 ft | 488 kts | 249° |
| 2026-05-07 19:38 | 59.67866 | -171.28148 | 36169 ft | 488 kts | 249° |
| 2026-05-07 19:38 | 59.65265 | -171.40465 | 36171 ft | 488 kts | 249° |
| 2026-05-07 19:39 | 59.62628 | -171.52883 | 36170 ft | 488 kts | 249° |
| 2026-05-07 19:39 | 59.59966 | -171.65342 | 36169 ft | 488 kts | 249° |
| 2026-05-07 19:40 | 59.57299 | -171.77750 | 36171 ft | 488 kts | 248° |
| 2026-05-07 19:40 | 59.54628 | -171.90090 | 36170 ft | 488 kts | 248° |
| 2026-05-07 19:41 | 59.52088 | -172.02403 | 36171 ft | 487 kts | 250° |
| 2026-05-07 19:41 | 59.49578 | -172.14799 | 36171 ft | 487 kts | 249° |
| 2026-05-07 19:42 | 59.47042 | -172.27198 | 36170 ft | 487 kts | 249° |
| 2026-05-07 19:42 | 59.44489 | -172.39566 | 36170 ft | 487 kts | 249° |
| 2026-05-07 19:43 | 59.41924 | -172.51903 | 36170 ft | 487 kts | 249° |
| 2026-05-07 19:43 | 59.39345 | -172.64235 | 36168 ft | 487 kts | 249° |
| 2026-05-07 19:44 | 59.36746 | -172.76581 | 36167 ft | 487 kts | 248° |
| 2026-05-07 19:44 | 59.34137 | -172.88903 | 36166 ft | 487 kts | 248° |
| 2026-05-07 19:45 | 59.31540 | -173.01096 | 36173 ft | 487 kts | 248° |
| 2026-05-07 19:45 | 59.28913 | -173.13355 | 36159 ft | 487 kts | 248° |
| 2026-05-07 19:46 | 59.26279 | -173.25578 | 36171 ft | 487 kts | 248° |
| 2026-05-07 19:46 | 59.23635 | -173.37774 | 36171 ft | 487 kts | 248° |
| 2026-05-07 19:47 | 59.20979 | -173.49954 | 36154 ft | 487 kts | 247° |
| 2026-05-07 19:47 | 59.18305 | -173.62144 | 36173 ft | 487 kts | 247° |
| 2026-05-07 19:48 | 59.15630 | -173.74269 | 36166 ft | 487 kts | 247° |
| 2026-05-07 19:48 | 59.12940 | -173.86394 | 36155 ft | 487 kts | 247° |
| 2026-05-07 19:49 | 59.10237 | -173.98512 | 36166 ft | 488 kts | 246° |
| 2026-05-07 19:49 | 59.07521 | -174.10613 | 36169 ft | 488 kts | 246° |
| 2026-05-07 19:50 | 59.04792 | -174.22719 | 36148 ft | 488 kts | 247° |
| 2026-05-07 19:50 | 59.02589 | -174.32819 | 36163 ft | 488 kts | 247° |
| 2026-05-07 19:51 | 58.99936 | -174.45050 | 36143 ft | 489 kts | 247° |
| 2026-05-07 19:51 | 58.97280 | -174.57194 | 36151 ft | 489 kts | 247° |
| 2026-05-07 19:52 | 58.94606 | -174.69327 | 36156 ft | 489 kts | 246° |
| 2026-05-07 19:52 | 58.91920 | -174.81435 | 36141 ft | 489 kts | 246° |
| 2026-05-07 19:53 | 58.89222 | -174.93528 | 36152 ft | 489 kts | 246° |
| 2026-05-07 19:53 | 58.86509 | -175.05614 | 36158 ft | 489 kts | 246° |
| 2026-05-07 19:54 | 58.83786 | -175.17673 | 36137 ft | 489 kts | 246° |
| 2026-05-07 19:54 | 58.81055 | -175.29703 | 36147 ft | 488 kts | 246° |
| 2026-05-07 19:55 | 58.78333 | -175.41628 | 36136 ft | 487 kts | 246° |
| 2026-05-07 19:55 | 58.75584 | -175.53603 | 36147 ft | 486 kts | 246° |
| 2026-05-07 19:56 | 58.72836 | -175.65505 | 36150 ft | 486 kts | 246° |
| 2026-05-07 19:56 | 58.70073 | -175.77410 | 36133 ft | 485 kts | 245° |
| 2026-05-07 19:57 | 58.67317 | -175.89218 | 36130 ft | 484 kts | 245° |
| 2026-05-07 19:57 | 58.64542 | -176.01045 | 36137 ft | 484 kts | 245° |
| 2026-05-07 19:58 | 58.61775 | -176.12773 | 36128 ft | 483 kts | 245° |
| 2026-05-07 19:58 | 58.58986 | -176.24532 | 36125 ft | 483 kts | 245° |
| 2026-05-07 19:59 | 58.56185 | -176.36273 | 36141 ft | 482 kts | 245° |
| 2026-05-07 19:59 | 58.53380 | -176.47968 | 36122 ft | 482 kts | 244° |
| 2026-05-07 20:00 | 58.50565 | -176.59638 | 36118 ft | 482 kts | 244° |
| 2026-05-07 20:00 | 58.47762 | -176.71204 | 36118 ft | 482 kts | 244° |
| 2026-05-07 20:01 | 58.44934 | -176.82811 | 36113 ft | 482 kts | 244° |
| 2026-05-07 20:01 | 58.42091 | -176.94417 | 36112 ft | 482 kts | 243° |
| 2026-05-07 20:02 | 58.39236 | -177.06002 | 36126 ft | 482 kts | 243° |
| 2026-05-07 20:02 | 58.36387 | -177.17521 | 36110 ft | 482 kts | 243° |
| 2026-05-07 20:03 | 58.33521 | -177.29094 | 36113 ft | 482 kts | 243° |
| 2026-05-07 20:03 | 58.30649 | -177.40636 | 36114 ft | 482 kts | 243° |
| 2026-05-07 20:04 | 58.27762 | -177.52171 | 36111 ft | 482 kts | 242° |
| 2026-05-07 20:04 | 58.24867 | -177.63675 | 36108 ft | 482 kts | 242° |
| 2026-05-07 20:05 | 58.21972 | -177.75122 | 36103 ft | 482 kts | 242° |
| 2026-05-07 20:05 | 58.19050 | -177.86617 | 36101 ft | 482 kts | 242° |
| 2026-05-07 20:06 | 58.16127 | -177.98059 | 36100 ft | 482 kts | 242° |
| 2026-05-07 20:06 | 58.13210 | -178.09412 | 36099 ft | 482 kts | 241° |
| 2026-05-07 20:07 | 58.10264 | -178.20824 | 36099 ft | 482 kts | 241° |
| 2026-05-07 20:07 | 58.07310 | -178.32208 | 36094 ft | 482 kts | 241° |
| 2026-05-07 20:08 | 58.04343 | -178.43579 | 36089 ft | 481 kts | 241° |
| 2026-05-07 20:08 | 58.01374 | -178.54905 | 36089 ft | 481 kts | 241° |
| 2026-05-07 20:09 | 57.98392 | -178.66222 | 36084 ft | 481 kts | 240° |
| 2026-05-07 20:10 | 57.93903 | -178.83150 | 36081 ft | 481 kts | 240° |
| 2026-05-07 20:10 | 57.90918 | -178.94340 | 36082 ft | 481 kts | 240° |
| 2026-05-07 20:11 | 57.87901 | -179.05593 | 36079 ft | 481 kts | 240° |
| 2026-05-07 20:11 | 57.84878 | -179.16813 | 36069 ft | 481 kts | 240° |
| 2026-05-07 20:12 | 57.81842 | -179.28027 | 36070 ft | 481 kts | 239° |
| 2026-05-07 20:12 | 57.78798 | -179.39212 | 36071 ft | 481 kts | 239° |
| 2026-05-07 20:13 | 57.75740 | -179.50391 | 36067 ft | 481 kts | 239° |
| 2026-05-07 20:13 | 57.72691 | -179.61483 | 36060 ft | 481 kts | 239° |
| 2026-05-07 20:14 | 57.69606 | -179.72654 | 36057 ft | 481 kts | 239° |
| 2026-05-07 20:14 | 57.66520 | -179.83773 | 36057 ft | 481 kts | 238° |
| 2026-05-07 20:15 | 57.63422 | -179.94884 | 36053 ft | 481 kts | 238° |
| 2026-05-07 20:15 | 57.60738 | 179.95535 | 36049 ft | 481 kts | 238° |
| 2026-05-07 20:16 | 57.57121 | 179.82689 | 36051 ft | 481 kts | 238° |
| 2026-05-07 20:16 | 57.54015 | 179.71711 | 36045 ft | 481 kts | 238° |
| 2026-05-07 20:17 | 57.50880 | 179.60686 | 36041 ft | 481 kts | 238° |
| 2026-05-07 20:17 | 57.47737 | 179.49683 | 36038 ft | 481 kts | 237° |
| 2026-05-07 20:18 | 57.44584 | 179.38698 | 36036 ft | 480 kts | 237° |
| 2026-05-07 20:18 | 57.41425 | 179.27743 | 36030 ft | 480 kts | 237° |
| 2026-05-07 20:19 | 57.38258 | 179.16817 | 36028 ft | 480 kts | 237° |
| 2026-05-07 20:19 | 57.35079 | 179.05896 | 36023 ft | 480 kts | 237° |
| 2026-05-07 20:20 | 57.31910 | 178.95063 | 36021 ft | 480 kts | 236° |
| 2026-05-07 20:20 | 57.28716 | 178.84195 | 36014 ft | 480 kts | 236° |
| 2026-05-07 20:21 | 57.25513 | 178.73346 | 36012 ft | 480 kts | 236° |
| 2026-05-07 20:21 | 57.22300 | 178.62516 | 36006 ft | 480 kts | 236° |
| 2026-05-07 20:22 | 57.19093 | 178.51755 | 35995 ft | 480 kts | 236° |
| 2026-05-07 20:22 | 57.15860 | 178.40955 | 35992 ft | 479 kts | 236° |
| 2026-05-07 20:23 | 57.12635 | 178.30234 | 35999 ft | 479 kts | 236° |
| 2026-05-07 20:23 | 57.09390 | 178.19495 | 35998 ft | 479 kts | 235° |
| 2026-05-07 20:24 | 57.06159 | 178.08847 | 35989 ft | 478 kts | 235° |
| 2026-05-07 20:24 | 57.02904 | 177.98173 | 35984 ft | 478 kts | 235° |
| 2026-05-07 20:25 | 56.99633 | 177.87493 | 35982 ft | 478 kts | 235° |
| 2026-05-07 20:25 | 56.96361 | 177.76856 | 35982 ft | 478 kts | 234° |
| 2026-05-07 20:26 | 56.93079 | 177.66238 | 35975 ft | 478 kts | 234° |
| 2026-05-07 20:26 | 56.89788 | 177.55636 | 35973 ft | 478 kts | 234° |
| 2026-05-07 20:27 | 56.86486 | 177.45043 | 35973 ft | 478 kts | 234° |
| 2026-05-07 20:27 | 56.83195 | 177.34544 | 35965 ft | 479 kts | 234° |
| 2026-05-07 20:28 | 56.79864 | 177.24009 | 35963 ft | 479 kts | 234° |
| 2026-05-07 20:28 | 56.76511 | 177.13463 | 35960 ft | 480 kts | 234° |
| 2026-05-07 20:29 | 56.73150 | 177.02934 | 35946 ft | 480 kts | 233° |
| 2026-05-07 20:29 | 56.69773 | 176.92398 | 35951 ft | 481 kts | 233° |
| 2026-05-07 20:30 | 56.66385 | 176.81875 | 35943 ft | 482 kts | 233° |
| 2026-05-07 20:30 | 56.62986 | 176.71362 | 35947 ft | 482 kts | 233° |
| 2026-05-07 20:31 | 56.59593 | 176.60916 | 35942 ft | 482 kts | 233° |
| 2026-05-07 20:31 | 56.56147 | 176.50351 | 35938 ft | 483 kts | 233° |
| 2026-05-07 20:32 | 56.52733 | 176.39933 | 35929 ft | 483 kts | 233° |
| 2026-05-07 20:32 | 56.49291 | 176.29473 | 35933 ft | 483 kts | 233° |
| 2026-05-07 20:33 | 56.45823 | 176.18982 | 35927 ft | 483 kts | 233° |
| 2026-05-07 20:33 | 56.42378 | 176.08602 | 35925 ft | 484 kts | 233° |
| 2026-05-07 20:34 | 56.38878 | 175.98108 | 35918 ft | 484 kts | 233° |
| 2026-05-07 20:34 | 56.35410 | 175.87749 | 35916 ft | 484 kts | 233° |
| 2026-05-07 20:35 | 56.31918 | 175.77367 | 35912 ft | 484 kts | 233° |
| 2026-05-07 20:35 | 56.28429 | 175.67038 | 35910 ft | 484 kts | 233° |
| 2026-05-07 20:36 | 56.24915 | 175.56678 | 35910 ft | 484 kts | 233° |
| 2026-05-07 20:36 | 56.21395 | 175.46344 | 35903 ft | 484 kts | 233° |
| 2026-05-07 20:37 | 56.17865 | 175.36026 | 35901 ft | 484 kts | 233° |
| 2026-05-07 20:37 | 56.14326 | 175.25724 | 35895 ft | 484 kts | 233° |
| 2026-05-07 20:38 | 56.10795 | 175.15492 | 35890 ft | 484 kts | 233° |
| 2026-05-07 20:38 | 56.07229 | 175.05199 | 35897 ft | 485 kts | 233° |
| 2026-05-07 20:39 | 56.04261 | 174.96668 | 35885 ft | 485 kts | 234° |
| 2026-05-07 20:39 | 56.00698 | 174.86464 | 35891 ft | 485 kts | 234° |
| 2026-05-07 20:40 | 55.97101 | 174.76206 | 35881 ft | 485 kts | 234° |
| 2026-05-07 20:40 | 55.93510 | 174.66007 | 35869 ft | 485 kts | 234° |
| 2026-05-07 20:41 | 55.89901 | 174.55801 | 35883 ft | 485 kts | 234° |
| 2026-05-07 20:41 | 55.86287 | 174.45627 | 35870 ft | 485 kts | 234° |
| 2026-05-07 20:42 | 55.82685 | 174.35526 | 35873 ft | 485 kts | 233° |
| 2026-05-07 20:42 | 55.79061 | 174.25405 | 35872 ft | 485 kts | 234° |
| 2026-05-07 20:43 | 55.75411 | 174.15253 | 35872 ft | 484 kts | 234° |
| 2026-05-07 20:43 | 55.71773 | 174.05179 | 35868 ft | 484 kts | 234° |
| 2026-05-07 20:44 | 55.68134 | 173.95144 | 35862 ft | 484 kts | 234° |
| 2026-05-07 20:44 | 55.64478 | 173.85099 | 35863 ft | 484 kts | 234° |
| 2026-05-07 20:45 | 55.60804 | 173.75048 | 35864 ft | 484 kts | 234° |
| 2026-05-07 20:45 | 55.57128 | 173.65036 | 35858 ft | 484 kts | 234° |
| 2026-05-07 20:46 | 55.53441 | 173.55030 | 35855 ft | 484 kts | 234° |
| 2026-05-07 20:46 | 55.49775 | 173.45126 | 35852 ft | 484 kts | 234° |
| 2026-05-07 20:47 | 55.46087 | 173.35199 | 35853 ft | 483 kts | 234° |
| 2026-05-07 20:47 | 55.42377 | 173.25255 | 35851 ft | 483 kts | 234° |
| 2026-05-07 20:48 | 55.38655 | 173.15318 | 35852 ft | 483 kts | 234° |
| 2026-05-07 20:48 | 55.34937 | 173.05434 | 35846 ft | 483 kts | 234° |
| 2026-05-07 20:49 | 55.31239 | 172.95639 | 35843 ft | 483 kts | 234° |
| 2026-05-07 20:49 | 55.27513 | 172.85812 | 35842 ft | 483 kts | 234° |
| 2026-05-07 20:50 | 55.23777 | 172.75996 | 35842 ft | 483 kts | 234° |
| 2026-05-07 20:50 | 55.20035 | 172.66205 | 35838 ft | 482 kts | 234° |
| 2026-05-07 20:51 | 55.16288 | 172.56440 | 35839 ft | 482 kts | 234° |
| 2026-05-07 20:51 | 55.12538 | 172.46703 | 35836 ft | 482 kts | 234° |
| 2026-05-07 20:52 | 55.08777 | 172.36977 | 35835 ft | 482 kts | 234° |
| 2026-05-07 20:52 | 55.05028 | 172.27321 | 35832 ft | 482 kts | 234° |
| 2026-05-07 20:53 | 55.01257 | 172.17641 | 35830 ft | 481 kts | 234° |
| 2026-05-07 20:53 | 54.97478 | 172.07984 | 35832 ft | 481 kts | 234° |
| 2026-05-07 20:54 | 54.93666 | 171.98393 | 35829 ft | 480 kts | 232° |
| 2026-05-07 20:54 | 54.89499 | 171.89322 | 35832 ft | 480 kts | 229° |
| 2026-05-07 20:55 | 54.85259 | 171.80360 | 35834 ft | 479 kts | 229° |
| 2026-05-07 20:55 | 54.81021 | 171.71426 | 35827 ft | 479 kts | 229° |
| 2026-05-07 20:56 | 54.76776 | 171.62511 | 35830 ft | 479 kts | 229° |
| 2026-05-07 20:56 | 54.72517 | 171.53596 | 35826 ft | 479 kts | 229° |
| 2026-05-07 20:57 | 54.68259 | 171.44721 | 35827 ft | 478 kts | 229° |
| 2026-05-07 20:57 | 54.64018 | 171.35912 | 35822 ft | 478 kts | 229° |
| 2026-05-07 20:58 | 54.59747 | 171.27073 | 35824 ft | 478 kts | 229° |
| 2026-05-07 20:58 | 54.55458 | 171.18226 | 35828 ft | 478 kts | 229° |
| 2026-05-07 20:59 | 54.51183 | 171.09441 | 35826 ft | 478 kts | 229° |
| 2026-05-07 20:59 | 54.46919 | 171.00712 | 35828 ft | 478 kts | 229° |
| 2026-05-07 21:00 | 54.42638 | 170.91977 | 35817 ft | 477 kts | 229° |
| 2026-05-07 21:00 | 54.38364 | 170.83289 | 35813 ft | 477 kts | 229° |
| 2026-05-07 21:01 | 54.34059 | 170.74568 | 35827 ft | 477 kts | 229° |
| 2026-05-07 21:01 | 54.29762 | 170.65894 | 35822 ft | 477 kts | 229° |
| 2026-05-07 21:02 | 54.25456 | 170.57231 | 35823 ft | 476 kts | 229° |
| 2026-05-07 21:02 | 54.21181 | 170.48663 | 35826 ft | 476 kts | 229° |
| 2026-05-07 21:03 | 54.16860 | 170.40033 | 35814 ft | 476 kts | 229° |
| 2026-05-07 21:03 | 54.12547 | 170.31448 | 35810 ft | 475 kts | 229° |
| 2026-05-07 21:04 | 54.08230 | 170.22885 | 35825 ft | 475 kts | 229° |
| 2026-05-07 21:04 | 54.03908 | 170.14342 | 35820 ft | 475 kts | 229° |
| 2026-05-07 21:05 | 53.99587 | 170.05831 | 35809 ft | 474 kts | 229° |
| 2026-05-07 21:05 | 53.95266 | 169.97350 | 35823 ft | 474 kts | 229° |
| 2026-05-07 21:06 | 53.90967 | 169.88939 | 35811 ft | 473 kts | 229° |
| 2026-05-07 21:06 | 53.86644 | 169.80510 | 35805 ft | 473 kts | 229° |
| 2026-05-07 21:07 | 53.82320 | 169.72110 | 35817 ft | 472 kts | 229° |
| 2026-05-07 21:07 | 53.77994 | 169.63732 | 35813 ft | 472 kts | 229° |
| 2026-05-07 21:08 | 53.73654 | 169.55355 | 35812 ft | 471 kts | 229° |
| 2026-05-07 21:08 | 53.69323 | 169.47028 | 35809 ft | 471 kts | 229° |
| 2026-05-07 21:09 | 53.65081 | 169.38580 | 35809 ft | 470 kts | 233° |
| 2026-05-07 21:09 | 53.61341 | 169.29595 | 35808 ft | 469 kts | 238° |
| 2026-05-07 21:10 | 53.58110 | 169.20004 | 35803 ft | 468 kts | 242° |
| 2026-05-07 21:10 | 53.55029 | 169.10371 | 35805 ft | 468 kts | 242° |
| 2026-05-07 21:11 | 53.51928 | 169.00726 | 35805 ft | 467 kts | 242° |
| 2026-05-07 21:11 | 53.47264 | 168.86294 | 35802 ft | 467 kts | 242° |
| 2026-05-07 21:12 | 53.44153 | 168.76712 | 35799 ft | 466 kts | 242° |
| 2026-05-07 21:12 | 53.41041 | 168.67166 | 35798 ft | 466 kts | 242° |
| 2026-05-07 21:13 | 53.37923 | 168.57634 | 35798 ft | 465 kts | 242° |
| 2026-05-07 21:13 | 53.34796 | 168.48115 | 35792 ft | 465 kts | 242° |
| 2026-05-07 21:14 | 53.31691 | 168.38703 | 35795 ft | 464 kts | 242° |
| 2026-05-07 21:14 | 53.28546 | 168.29223 | 35790 ft | 464 kts | 242° |
| 2026-05-07 21:15 | 53.25395 | 168.19787 | 35791 ft | 463 kts | 242° |
| 2026-05-07 21:15 | 53.22238 | 168.10371 | 35791 ft | 463 kts | 242° |
| 2026-05-07 21:16 | 53.19080 | 168.00980 | 35792 ft | 462 kts | 242° |
| 2026-05-07 21:16 | 53.15936 | 167.91669 | 35789 ft | 462 kts | 242° |
| 2026-05-07 21:17 | 53.12748 | 167.82260 | 35789 ft | 461 kts | 242° |
| 2026-05-07 21:17 | 53.09562 | 167.72894 | 35788 ft | 460 kts | 242° |
| 2026-05-07 21:18 | 53.06398 | 167.63629 | 35787 ft | 460 kts | 242° |
| 2026-05-07 21:18 | 53.03210 | 167.54326 | 35785 ft | 460 kts | 242° |
| 2026-05-07 21:19 | 53.00052 | 167.45147 | 35786 ft | 459 kts | 242° |
| 2026-05-07 21:19 | 52.96850 | 167.35873 | 35785 ft | 459 kts | 242° |
| 2026-05-07 21:20 | 52.93658 | 167.26663 | 35786 ft | 458 kts | 242° |
| 2026-05-07 21:20 | 52.90476 | 167.17514 | 35785 ft | 457 kts | 242° |
| 2026-05-07 21:21 | 52.87089 | 167.07814 | 35784 ft | 457 kts | 242° |
| 2026-05-07 21:21 | 52.83851 | 166.98576 | 35785 ft | 456 kts | 242° |
| 2026-05-07 21:22 | 52.80651 | 166.89481 | 35785 ft | 456 kts | 242° |
| 2026-05-07 21:22 | 52.77456 | 166.80432 | 35781 ft | 455 kts | 242° |
| 2026-05-07 21:23 | 52.74250 | 166.71383 | 35783 ft | 455 kts | 242° |
| 2026-05-07 21:23 | 52.71048 | 166.62381 | 35787 ft | 454 kts | 242° |
| 2026-05-07 21:24 | 52.67837 | 166.53381 | 35783 ft | 453 kts | 242° |
| 2026-05-07 21:24 | 52.64616 | 166.44390 | 35783 ft | 453 kts | 242° |
| 2026-05-07 21:25 | 52.61948 | 166.36967 | 35785 ft | 453 kts | 242° |
| 2026-05-07 21:25 | 52.58720 | 166.28012 | 35780 ft | 452 kts | 242° |
| 2026-05-07 21:26 | 52.54969 | 166.17651 | 35783 ft | 452 kts | 242° |
| 2026-05-07 21:26 | 52.52289 | 166.10270 | 35781 ft | 451 kts | 242° |
| 2026-05-07 21:27 | 52.49057 | 166.01402 | 35782 ft | 450 kts | 242° |
| 2026-05-07 21:27 | 52.45822 | 165.92555 | 35786 ft | 450 kts | 242° |
| 2026-05-07 21:28 | 52.42592 | 165.83752 | 35785 ft | 450 kts | 242° |
| 2026-05-07 21:28 | 52.39354 | 165.74960 | 35783 ft | 449 kts | 242° |
| 2026-05-07 21:29 | 52.36115 | 165.66193 | 35787 ft | 449 kts | 242° |
| 2026-05-07 21:29 | 52.32883 | 165.57476 | 35788 ft | 448 kts | 241° |
| 2026-05-07 21:30 | 52.29630 | 165.48735 | 35787 ft | 448 kts | 241° |
| 2026-05-07 21:30 | 52.26384 | 165.40041 | 35790 ft | 447 kts | 241° |
| 2026-05-07 21:31 | 52.23134 | 165.31366 | 35788 ft | 446 kts | 241° |
| 2026-05-07 21:31 | 52.19879 | 165.22708 | 35792 ft | 446 kts | 241° |
| 2026-05-07 21:32 | 52.16621 | 165.14071 | 35793 ft | 445 kts | 241° |
| 2026-05-07 21:32 | 52.13367 | 165.05474 | 35796 ft | 445 kts | 241° |
| 2026-05-07 21:33 | 52.10129 | 164.96946 | 35796 ft | 444 kts | 241° |
| 2026-05-07 21:33 | 52.06862 | 164.88373 | 35793 ft | 444 kts | 241° |
| 2026-05-07 21:34 | 52.03598 | 164.79835 | 35804 ft | 443 kts | 241° |
| 2026-05-07 21:34 | 52.00329 | 164.71313 | 35803 ft | 443 kts | 241° |
| 2026-05-07 21:35 | 51.97056 | 164.62812 | 35795 ft | 442 kts | 241° |
| 2026-05-07 21:35 | 51.93792 | 164.54359 | 35794 ft | 442 kts | 241° |
| 2026-05-07 21:36 | 51.90519 | 164.45910 | 35800 ft | 441 kts | 241° |
| 2026-05-07 21:36 | 51.87241 | 164.37477 | 35797 ft | 440 kts | 241° |
| 2026-05-07 21:37 | 51.83985 | 164.29128 | 35806 ft | 440 kts | 241° |
| 2026-05-07 21:37 | 51.80709 | 164.20755 | 35806 ft | 439 kts | 241° |
| 2026-05-07 21:38 | 51.77432 | 164.12408 | 35807 ft | 438 kts | 241° |
| 2026-05-07 21:38 | 51.74151 | 164.04076 | 35814 ft | 438 kts | 241° |
| 2026-05-07 21:39 | 51.70872 | 163.95774 | 35809 ft | 437 kts | 241° |
| 2026-05-07 21:39 | 51.67605 | 163.87530 | 35812 ft | 436 kts | 241° |
| 2026-05-07 21:40 | 51.64333 | 163.79301 | 35811 ft | 435 kts | 241° |
| 2026-05-07 21:40 | 51.61048 | 163.71071 | 35811 ft | 435 kts | 241° |
| 2026-05-07 21:41 | 51.57762 | 163.62862 | 35812 ft | 434 kts | 241° |
| 2026-05-07 21:41 | 51.54482 | 163.54693 | 35814 ft | 433 kts | 241° |
| 2026-05-07 21:42 | 51.51211 | 163.46572 | 35814 ft | 432 kts | 241° |
| 2026-05-07 21:42 | 51.47943 | 163.38481 | 35818 ft | 432 kts | 241° |
| 2026-05-07 21:43 | 51.44660 | 163.30381 | 35815 ft | 431 kts | 241° |
| 2026-05-07 21:43 | 51.41378 | 163.22307 | 35815 ft | 430 kts | 241° |
| 2026-05-07 21:44 | 51.38113 | 163.14300 | 35816 ft | 430 kts | 241° |
| 2026-05-07 21:44 | 51.34836 | 163.06290 | 35815 ft | 429 kts | 241° |
| 2026-05-07 21:45 | 51.31556 | 162.98294 | 35820 ft | 428 kts | 241° |
| 2026-05-07 21:45 | 51.28275 | 162.90322 | 35816 ft | 427 kts | 241° |
| 2026-05-07 21:46 | 51.24989 | 162.82364 | 35822 ft | 427 kts | 241° |
| 2026-05-07 21:46 | 51.21713 | 162.74452 | 35820 ft | 426 kts | 241° |
| 2026-05-07 21:47 | 51.18426 | 162.66537 | 35820 ft | 426 kts | 241° |
| 2026-05-07 21:47 | 51.15149 | 162.58671 | 35822 ft | 425 kts | 241° |
| 2026-05-07 21:48 | 51.11869 | 162.50821 | 35822 ft | 425 kts | 241° |
| 2026-05-07 21:48 | 51.08584 | 162.42984 | 35827 ft | 424 kts | 241° |
| 2026-05-07 21:49 | 51.05320 | 162.35222 | 35825 ft | 424 kts | 241° |
| 2026-05-07 21:49 | 51.02026 | 162.27410 | 35832 ft | 423 kts | 241° |
| 2026-05-07 21:50 | 50.98739 | 162.19638 | 35829 ft | 422 kts | 241° |
| 2026-05-07 21:50 | 50.95448 | 162.11879 | 35826 ft | 422 kts | 241° |
| 2026-05-07 21:51 | 50.92156 | 162.04142 | 35825 ft | 421 kts | 241° |
| 2026-05-07 21:51 | 50.88865 | 161.96431 | 35828 ft | 420 kts | 241° |
| 2026-05-07 21:52 | 50.85594 | 161.88787 | 35831 ft | 419 kts | 241° |
| 2026-05-07 21:52 | 50.82303 | 161.81122 | 35828 ft | 418 kts | 241° |
| 2026-05-07 21:53 | 50.79026 | 161.73508 | 35828 ft | 417 kts | 241° |
| 2026-05-07 21:53 | 50.75754 | 161.65931 | 35830 ft | 417 kts | 241° |
| 2026-05-07 21:54 | 50.72473 | 161.58353 | 35831 ft | 416 kts | 241° |
| 2026-05-07 21:54 | 50.69196 | 161.50808 | 35826 ft | 414 kts | 241° |
| 2026-05-07 21:55 | 50.65932 | 161.43313 | 35828 ft | 414 kts | 242° |
| 2026-05-07 21:55 | 50.62681 | 161.35869 | 35826 ft | 413 kts | 242° |
| 2026-05-07 21:56 | 50.59413 | 161.28406 | 35835 ft | 412 kts | 242° |
| 2026-05-07 21:56 | 50.56147 | 161.20972 | 35832 ft | 411 kts | 242° |
| 2026-05-07 21:57 | 50.52881 | 161.13557 | 35842 ft | 410 kts | 242° |
| 2026-05-07 21:57 | 50.49617 | 161.06168 | 35838 ft | 409 kts | 242° |
| 2026-05-07 21:58 | 50.46386 | 160.98874 | 35835 ft | 408 kts | 242° |
| 2026-05-07 21:58 | 50.43124 | 160.91531 | 35834 ft | 408 kts | 242° |
| 2026-05-07 21:59 | 50.41500 | 160.87877 | 35992 ft | 410 kts | 242° |
| 2026-05-07 21:59 | 50.39852 | 160.84178 | 36411 ft | 406 kts | 242° |
| 2026-05-07 21:59 | 50.38237 | 160.80559 | 36777 ft | 404 kts | 241° |
| 2026-05-07 21:59 | 50.36615 | 160.76928 | 37024 ft | 405 kts | 241° |
| 2026-05-07 22:00 | 50.34991 | 160.73297 | 37218 ft | 406 kts | 241° |
| 2026-05-07 22:00 | 50.33385 | 160.69713 | 37435 ft | 407 kts | 241° |
| 2026-05-07 22:00 | 50.31746 | 160.66059 | 37684 ft | 407 kts | 241° |
| 2026-05-07 22:00 | 50.30115 | 160.62431 | 37839 ft | 408 kts | 241° |
| 2026-05-07 22:01 | 50.26832 | 160.55145 | 37835 ft | 408 kts | 241° |
| 2026-05-07 22:01 | 50.25192 | 160.51512 | 38134 ft | 407 kts | 241° |
| 2026-05-07 22:01 | 50.23552 | 160.47886 | 37833 ft | 407 kts | 241° |
| 2026-05-07 22:02 | 50.20277 | 160.40663 | 37840 ft | 406 kts | 241° |
| 2026-05-07 22:02 | 50.16989 | 160.33447 | 37844 ft | 406 kts | 241° |
| 2026-05-07 22:03 | 50.13697 | 160.26261 | 37845 ft | 405 kts | 241° |
| 2026-05-07 22:03 | 50.10441 | 160.19168 | 37845 ft | 405 kts | 241° |
| 2026-05-07 22:04 | 50.07140 | 160.11996 | 37838 ft | 404 kts | 241° |
| 2026-05-07 22:04 | 50.03852 | 160.04868 | 37841 ft | 403 kts | 241° |
| 2026-05-07 22:05 | 50.00572 | 159.97779 | 37840 ft | 402 kts | 241° |
| 2026-05-07 22:05 | 49.97320 | 159.90766 | 37839 ft | 401 kts | 241° |
| 2026-05-07 22:06 | 49.94042 | 159.83718 | 37848 ft | 400 kts | 241° |
| 2026-05-07 22:06 | 49.90760 | 159.76677 | 37847 ft | 400 kts | 241° |
| 2026-05-07 22:07 | 49.87483 | 159.69667 | 37848 ft | 399 kts | 241° |
| 2026-05-07 22:07 | 49.84217 | 159.62698 | 37844 ft | 399 kts | 241° |
| 2026-05-07 22:08 | 49.80940 | 159.55725 | 37854 ft | 398 kts | 241° |
| 2026-05-07 22:08 | 49.77692 | 159.48829 | 37857 ft | 398 kts | 240° |
| 2026-05-07 22:09 | 49.74417 | 159.41895 | 37853 ft | 397 kts | 240° |
| 2026-05-07 22:09 | 49.71153 | 159.35004 | 37856 ft | 397 kts | 240° |
| 2026-05-07 22:10 | 49.67826 | 159.28161 | 37862 ft | 397 kts | 240° |
| 2026-05-07 22:10 | 49.64480 | 159.21350 | 37858 ft | 396 kts | 240° |
| 2026-05-07 22:11 | 49.61137 | 159.14557 | 37856 ft | 395 kts | 240° |
| 2026-05-07 22:11 | 49.57804 | 159.07792 | 37854 ft | 395 kts | 240° |
| 2026-05-07 22:12 | 49.54486 | 159.01074 | 37853 ft | 395 kts | 240° |
| 2026-05-07 22:12 | 49.51141 | 158.94316 | 37854 ft | 395 kts | 240° |
| 2026-05-07 22:13 | 49.48363 | 158.88715 | 37856 ft | 394 kts | 240° |
| 2026-05-07 22:13 | 49.44997 | 158.81946 | 37857 ft | 394 kts | 240° |
| 2026-05-07 22:14 | 49.41639 | 158.75210 | 37853 ft | 394 kts | 240° |
| 2026-05-07 22:14 | 49.38269 | 158.68466 | 37854 ft | 394 kts | 240° |
| 2026-05-07 22:15 | 49.34915 | 158.61772 | 37859 ft | 394 kts | 240° |
| 2026-05-07 22:15 | 49.31567 | 158.55106 | 37861 ft | 394 kts | 240° |
| 2026-05-07 22:16 | 49.28215 | 158.48448 | 37863 ft | 394 kts | 240° |
| 2026-05-07 22:16 | 49.24874 | 158.41829 | 37857 ft | 394 kts | 240° |
| 2026-05-07 22:17 | 49.21500 | 158.35162 | 37856 ft | 394 kts | 240° |
| 2026-05-07 22:17 | 49.18131 | 158.28522 | 37858 ft | 394 kts | 240° |
| 2026-05-07 22:18 | 49.13089 | 158.18614 | 37861 ft | 394 kts | 240° |
| 2026-05-07 22:19 | 49.09708 | 158.11993 | 37860 ft | 394 kts | 240° |
| 2026-05-07 22:19 | 49.06329 | 158.05390 | 37867 ft | 394 kts | 240° |
| 2026-05-07 22:20 | 49.02932 | 157.98768 | 37862 ft | 394 kts | 239° |
| 2026-05-07 22:20 | 48.99534 | 157.92160 | 37871 ft | 394 kts | 239° |
| 2026-05-07 22:21 | 48.96166 | 157.85629 | 37863 ft | 395 kts | 239° |
| 2026-05-07 22:21 | 48.92755 | 157.79029 | 37872 ft | 394 kts | 239° |
| 2026-05-07 22:22 | 48.89357 | 157.72470 | 37866 ft | 395 kts | 239° |
| 2026-05-07 22:22 | 48.85936 | 157.65883 | 37874 ft | 394 kts | 239° |
| 2026-05-07 22:23 | 48.82518 | 157.59317 | 37863 ft | 395 kts | 239° |
| 2026-05-07 22:23 | 48.79101 | 157.52771 | 37877 ft | 395 kts | 239° |
| 2026-05-07 22:24 | 48.75679 | 157.46231 | 37867 ft | 395 kts | 239° |
| 2026-05-07 22:24 | 48.72248 | 157.39688 | 37875 ft | 395 kts | 239° |
| 2026-05-07 22:25 | 48.68817 | 157.33163 | 37868 ft | 396 kts | 239° |
| 2026-05-07 22:25 | 48.65386 | 157.26654 | 37882 ft | 395 kts | 239° |
| 2026-05-07 22:26 | 48.61931 | 157.20115 | 37876 ft | 396 kts | 239° |
| 2026-05-07 22:26 | 48.58500 | 157.13637 | 37882 ft | 396 kts | 239° |
| 2026-05-07 22:27 | 48.55018 | 157.07077 | 37871 ft | 396 kts | 239° |
| 2026-05-07 22:27 | 48.51585 | 157.00628 | 37884 ft | 396 kts | 239° |
| 2026-05-07 22:28 | 48.48122 | 156.94135 | 37879 ft | 396 kts | 239° |
| 2026-05-07 22:28 | 48.44647 | 156.87640 | 37886 ft | 396 kts | 239° |
| 2026-05-07 22:29 | 48.41173 | 156.81157 | 37890 ft | 396 kts | 239° |
| 2026-05-07 22:29 | 48.37708 | 156.74711 | 37889 ft | 396 kts | 239° |
| 2026-05-07 22:30 | 48.34228 | 156.68250 | 37885 ft | 396 kts | 239° |
| 2026-05-07 22:30 | 48.30766 | 156.61839 | 37888 ft | 395 kts | 239° |
| 2026-05-07 22:31 | 48.27291 | 156.55417 | 37884 ft | 395 kts | 239° |
| 2026-05-07 22:31 | 48.23800 | 156.48984 | 37886 ft | 395 kts | 239° |
| 2026-05-07 22:32 | 48.20325 | 156.42593 | 37888 ft | 395 kts | 239° |
| 2026-05-07 22:32 | 48.16830 | 156.36182 | 37888 ft | 395 kts | 239° |
| 2026-05-07 22:33 | 48.13334 | 156.29784 | 37882 ft | 395 kts | 239° |
| 2026-05-07 22:33 | 48.09867 | 156.23454 | 37893 ft | 395 kts | 239° |
| 2026-05-07 22:34 | 48.06367 | 156.17078 | 37887 ft | 395 kts | 239° |
| 2026-05-07 22:34 | 48.02864 | 156.10713 | 37892 ft | 394 kts | 239° |
| 2026-05-07 22:35 | 47.99371 | 156.04380 | 37891 ft | 394 kts | 238° |
| 2026-05-07 22:35 | 47.95870 | 155.98048 | 37897 ft | 394 kts | 238° |
| 2026-05-07 22:36 | 47.92395 | 155.91778 | 37891 ft | 394 kts | 238° |
| 2026-05-07 22:36 | 47.88892 | 155.85472 | 37895 ft | 393 kts | 238° |
| 2026-05-07 22:37 | 47.85389 | 155.79181 | 37888 ft | 393 kts | 238° |
| 2026-05-07 22:37 | 47.81882 | 155.72898 | 37900 ft | 393 kts | 238° |
| 2026-05-07 22:38 | 47.78371 | 155.66622 | 37894 ft | 393 kts | 238° |
| 2026-05-07 22:38 | 47.74864 | 155.60367 | 37897 ft | 392 kts | 238° |
| 2026-05-07 22:39 | 47.71377 | 155.54162 | 37897 ft | 392 kts | 238° |
| 2026-05-07 22:39 | 47.67864 | 155.47926 | 37899 ft | 392 kts | 238° |
| 2026-05-07 22:40 | 47.64351 | 155.41704 | 37894 ft | 392 kts | 238° |
| 2026-05-07 22:40 | 47.60832 | 155.35485 | 37897 ft | 392 kts | 238° |
| 2026-05-07 22:41 | 47.57304 | 155.29266 | 37894 ft | 392 kts | 237° |
| 2026-05-07 22:41 | 47.53791 | 155.23087 | 37904 ft | 392 kts | 237° |
| 2026-05-07 22:42 | 47.50279 | 155.16922 | 37893 ft | 392 kts | 237° |
| 2026-05-07 22:42 | 47.46749 | 155.10742 | 37910 ft | 392 kts | 237° |
| 2026-05-07 22:43 | 47.43210 | 155.04559 | 37905 ft | 393 kts | 237° |
| 2026-05-07 22:43 | 47.39661 | 154.98374 | 37908 ft | 393 kts | 237° |
| 2026-05-07 22:44 | 47.36121 | 154.92216 | 37902 ft | 393 kts | 237° |
| 2026-05-07 22:44 | 47.32570 | 154.86055 | 37904 ft | 393 kts | 237° |
| 2026-05-07 22:45 | 47.29014 | 154.79899 | 37903 ft | 393 kts | 237° |
| 2026-05-07 22:45 | 47.25413 | 154.73681 | 37909 ft | 393 kts | 237° |
| 2026-05-07 22:46 | 47.21839 | 154.67521 | 37906 ft | 393 kts | 237° |
| 2026-05-07 22:46 | 47.18265 | 154.61376 | 37903 ft | 393 kts | 237° |
| 2026-05-07 22:47 | 47.14686 | 154.55235 | 37904 ft | 394 kts | 236° |
| 2026-05-07 22:47 | 47.11115 | 154.49124 | 37647 ft | 393 kts | 236° |
| 2026-05-07 22:47 | 47.09342 | 154.46119 | 37812 ft | 377 kts | 237° |
| 2026-05-07 22:48 | 47.07639 | 154.43253 | 37837 ft | 370 kts | 237° |
| 2026-05-07 22:48 | 47.04249 | 154.37549 | 37811 ft | 368 kts | 237° |
| 2026-05-07 22:49 | 47.00889 | 154.31872 | 37797 ft | 368 kts | 237° |
| 2026-05-07 22:49 | 46.97508 | 154.26131 | 37781 ft | 367 kts | 237° |
| 2026-05-07 22:50 | 46.94145 | 154.20392 | 37789 ft | 367 kts | 237° |
| 2026-05-07 22:50 | 46.90794 | 154.14645 | 37799 ft | 367 kts | 237° |
| 2026-05-07 22:51 | 46.87454 | 154.08891 | 37825 ft | 366 kts | 238° |
| 2026-05-07 22:51 | 46.84137 | 154.03148 | 37861 ft | 366 kts | 238° |
| 2026-05-07 22:52 | 46.80861 | 153.97446 | 37904 ft | 366 kts | 238° |
| 2026-05-07 22:52 | 46.77568 | 153.91689 | 37957 ft | 365 kts | 238° |
| 2026-05-07 22:53 | 46.74311 | 153.85966 | 38017 ft | 365 kts | 238° |
| 2026-05-07 22:53 | 46.71101 | 153.80298 | 38077 ft | 364 kts | 238° |
| 2026-05-07 22:54 | 46.67877 | 153.74579 | 38139 ft | 364 kts | 238° |
| 2026-05-07 22:54 | 46.64674 | 153.68868 | 38196 ft | 363 kts | 238° |
| 2026-05-07 22:55 | 46.61477 | 153.63142 | 38288 ft | 363 kts | 238° |
| 2026-05-07 22:55 | 46.58316 | 153.57452 | 38353 ft | 362 kts | 238° |
| 2026-05-07 22:56 | 46.55150 | 153.51726 | 38452 ft | 361 kts | 238° |
| 2026-05-07 22:56 | 46.51976 | 153.45959 | 38534 ft | 361 kts | 238° |
| 2026-05-07 22:57 | 46.48814 | 153.40185 | 38605 ft | 361 kts | 238° |
| 2026-05-07 22:57 | 46.45692 | 153.34452 | 38657 ft | 361 kts | 238° |
| 2026-05-07 22:58 | 46.42558 | 153.28666 | 38720 ft | 361 kts | 238° |
| 2026-05-07 22:58 | 46.39456 | 153.22908 | 38786 ft | 362 kts | 238° |
| 2026-05-07 22:59 | 46.36366 | 153.17140 | 38828 ft | 362 kts | 238° |
| 2026-05-07 22:59 | 46.33799 | 153.12325 | 38874 ft | 362 kts | 238° |
| 2026-05-07 23:00 | 46.30718 | 153.06518 | 38930 ft | 362 kts | 239° |
| 2026-05-07 23:00 | 46.27645 | 153.00695 | 38978 ft | 363 kts | 239° |
| 2026-05-07 23:01 | 46.24582 | 152.94859 | 39039 ft | 363 kts | 239° |
| 2026-05-07 23:01 | 46.21550 | 152.89051 | 39102 ft | 364 kts | 239° |
| 2026-05-07 23:02 | 46.18501 | 152.83179 | 39134 ft | 363 kts | 239° |
| 2026-05-07 23:02 | 46.15491 | 152.77350 | 39180 ft | 364 kts | 239° |
| 2026-05-07 23:03 | 46.12442 | 152.71416 | 39228 ft | 365 kts | 239° |
| 2026-05-07 23:03 | 46.09426 | 152.65513 | 39252 ft | 365 kts | 239° |
| 2026-05-07 23:04 | 46.06427 | 152.59611 | 39281 ft | 365 kts | 239° |
| 2026-05-07 23:04 | 46.03417 | 152.53657 | 39333 ft | 366 kts | 239° |
| 2026-05-07 23:05 | 46.00420 | 152.47696 | 39369 ft | 366 kts | 239° |
| 2026-05-07 23:05 | 45.97463 | 152.41784 | 39404 ft | 366 kts | 239° |
| 2026-05-07 23:06 | 45.94479 | 152.35787 | 39445 ft | 367 kts | 239° |
| 2026-05-07 23:06 | 45.91513 | 152.29791 | 39470 ft | 367 kts | 239° |
| 2026-05-07 23:07 | 45.88560 | 152.23793 | 39494 ft | 367 kts | 239° |
| 2026-05-07 23:07 | 45.85611 | 152.17772 | 39538 ft | 368 kts | 239° |
| 2026-05-07 23:08 | 45.82673 | 152.11739 | 39583 ft | 368 kts | 239° |
| 2026-05-07 23:08 | 45.79135 | 152.06381 | 39509 ft | 386 kts | 222° |
| 2026-05-07 23:09 | 45.74368 | 152.02619 | 39792 ft | 396 kts | 213° |
| 2026-05-07 23:09 | 45.69225 | 151.99620 | 39890 ft | 399 kts | 212° |
| 2026-05-07 23:10 | 45.64041 | 151.96694 | 39890 ft | 400 kts | 212° |
| 2026-05-07 23:10 | 45.58852 | 151.93768 | 39887 ft | 400 kts | 212° |
| 2026-05-07 23:11 | 45.53673 | 151.90808 | 39881 ft | 396 kts | 216° |
| 2026-05-07 23:11 | 45.51370 | 151.88755 | 39888 ft | 382 kts | 228° |
| 2026-05-07 23:11 | 45.49472 | 151.86039 | 39898 ft | 377 kts | 233° |
| 2026-05-07 23:12 | 45.45659 | 151.80847 | 39889 ft | 379 kts | 229° |
| 2026-05-07 23:12 | 45.41868 | 151.75630 | 39891 ft | 377 kts | 232° |
| 2026-05-07 23:13 | 45.38299 | 151.70128 | 39884 ft | 376 kts | 233° |
| 2026-05-07 23:13 | 45.34754 | 151.64683 | 39884 ft | 376 kts | 233° |
| 2026-05-07 23:14 | 45.31187 | 151.59240 | 39885 ft | 376 kts | 232° |
| 2026-05-07 23:14 | 45.27594 | 151.53778 | 39882 ft | 376 kts | 232° |
| 2026-05-07 23:15 | 45.24014 | 151.48348 | 39881 ft | 377 kts | 232° |
| 2026-05-07 23:15 | 45.20422 | 151.42913 | 39879 ft | 377 kts | 232° |
| 2026-05-07 23:16 | 45.16817 | 151.37472 | 39879 ft | 377 kts | 232° |
| 2026-05-07 23:16 | 45.13239 | 151.32080 | 39879 ft | 377 kts | 232° |
| 2026-05-07 23:17 | 45.09604 | 151.26615 | 39875 ft | 377 kts | 232° |
| 2026-05-07 23:17 | 45.06012 | 151.21226 | 39873 ft | 377 kts | 232° |
| 2026-05-07 23:18 | 45.02386 | 151.15795 | 39873 ft | 377 kts | 232° |
| 2026-05-07 23:18 | 44.98760 | 151.10375 | 39873 ft | 378 kts | 232° |
| 2026-05-07 23:19 | 44.95126 | 151.04955 | 39873 ft | 378 kts | 232° |
| 2026-05-07 23:19 | 44.91521 | 150.99587 | 39874 ft | 378 kts | 232° |
| 2026-05-07 23:20 | 44.87880 | 150.94178 | 39867 ft | 378 kts | 232° |
| 2026-05-07 23:20 | 44.84246 | 150.88790 | 39872 ft | 379 kts | 232° |
| 2026-05-07 23:21 | 44.80599 | 150.83392 | 39867 ft | 379 kts | 232° |
| 2026-05-07 23:21 | 44.76985 | 150.78054 | 39867 ft | 379 kts | 231° |
| 2026-05-07 23:22 | 44.73335 | 150.72673 | 39865 ft | 379 kts | 231° |
| 2026-05-07 23:22 | 44.69684 | 150.67301 | 39867 ft | 379 kts | 231° |
| 2026-05-07 23:23 | 44.66020 | 150.61919 | 39864 ft | 379 kts | 231° |
| 2026-05-07 23:23 | 44.62385 | 150.56592 | 39866 ft | 380 kts | 231° |
| 2026-05-07 23:24 | 44.58708 | 150.51213 | 39863 ft | 380 kts | 231° |
| 2026-05-07 23:24 | 44.55042 | 150.45861 | 39866 ft | 380 kts | 231° |
| 2026-05-07 23:25 | 44.51358 | 150.40493 | 39861 ft | 381 kts | 231° |
| 2026-05-07 23:25 | 44.47676 | 150.35138 | 39862 ft | 381 kts | 231° |
| 2026-05-07 23:26 | 44.43998 | 150.29799 | 39862 ft | 381 kts | 231° |
| 2026-05-07 23:26 | 44.40304 | 150.24448 | 39863 ft | 382 kts | 231° |
| 2026-05-07 23:27 | 44.34743 | 150.16412 | 39859 ft | 382 kts | 231° |
| 2026-05-07 23:27 | 44.31062 | 150.11105 | 39860 ft | 382 kts | 231° |
| 2026-05-07 23:28 | 44.27335 | 150.05743 | 39856 ft | 383 kts | 231° |
| 2026-05-07 23:28 | 44.23625 | 150.00414 | 39859 ft | 383 kts | 231° |
| 2026-05-07 23:29 | 44.19893 | 149.95066 | 39859 ft | 383 kts | 230° |
| 2026-05-07 23:29 | 44.16168 | 149.89736 | 39858 ft | 383 kts | 230° |
| 2026-05-07 23:30 | 44.12459 | 149.84442 | 39858 ft | 384 kts | 230° |
| 2026-05-07 23:30 | 44.08712 | 149.79101 | 39853 ft | 384 kts | 230° |
| 2026-05-07 23:31 | 44.04968 | 149.73777 | 39854 ft | 384 kts | 230° |
| 2026-05-07 23:31 | 44.01212 | 149.68444 | 39856 ft | 385 kts | 230° |
| 2026-05-07 23:32 | 43.97480 | 149.63157 | 39855 ft | 385 kts | 230° |
| 2026-05-07 23:32 | 43.93713 | 149.57830 | 39853 ft | 385 kts | 230° |
| 2026-05-07 23:33 | 43.89956 | 149.52527 | 39851 ft | 385 kts | 230° |
| 2026-05-07 23:33 | 43.86175 | 149.47202 | 39848 ft | 385 kts | 230° |
| 2026-05-07 23:34 | 43.82408 | 149.41905 | 39846 ft | 386 kts | 230° |
| 2026-05-07 23:34 | 43.78620 | 149.36589 | 39849 ft | 386 kts | 230° |
| 2026-05-07 23:35 | 43.74855 | 149.31316 | 39846 ft | 386 kts | 230° |
| 2026-05-07 23:35 | 43.71058 | 149.26006 | 39856 ft | 387 kts | 230° |
| 2026-05-07 23:36 | 43.67256 | 149.20702 | 39853 ft | 387 kts | 230° |
| 2026-05-07 23:36 | 43.63455 | 149.15408 | 39850 ft | 387 kts | 229° |
| 2026-05-07 23:37 | 43.59659 | 149.10131 | 39844 ft | 388 kts | 229° |
| 2026-05-07 23:37 | 43.55856 | 149.04855 | 39848 ft | 388 kts | 229° |
| 2026-05-07 23:38 | 43.52032 | 148.99561 | 39849 ft | 388 kts | 229° |
| 2026-05-07 23:38 | 43.48205 | 148.94271 | 39846 ft | 388 kts | 229° |
| 2026-05-07 23:39 | 43.44390 | 148.89008 | 39847 ft | 389 kts | 229° |
| 2026-05-07 23:39 | 43.40544 | 148.83713 | 39848 ft | 389 kts | 229° |
| 2026-05-07 23:40 | 43.36739 | 148.78483 | 39846 ft | 389 kts | 229° |
| 2026-05-07 23:40 | 43.32880 | 148.73190 | 39844 ft | 389 kts | 229° |
| 2026-05-07 23:41 | 43.29024 | 148.67912 | 39843 ft | 390 kts | 229° |
| 2026-05-07 23:41 | 43.25171 | 148.62646 | 39843 ft | 390 kts | 229° |
| 2026-05-07 23:42 | 43.21334 | 148.57414 | 39843 ft | 391 kts | 229° |
| 2026-05-07 23:42 | 43.17461 | 148.52142 | 39842 ft | 391 kts | 229° |
| 2026-05-07 23:43 | 43.13578 | 148.46865 | 39844 ft | 391 kts | 229° |
| 2026-05-07 23:43 | 43.09698 | 148.41604 | 39836 ft | 392 kts | 229° |
| 2026-05-07 23:44 | 43.05812 | 148.36343 | 39830 ft | 392 kts | 228° |
| 2026-05-07 23:44 | 43.01921 | 148.31086 | 39842 ft | 392 kts | 228° |
| 2026-05-07 23:45 | 42.98052 | 148.25870 | 39845 ft | 393 kts | 228° |
| 2026-05-07 23:45 | 42.94144 | 148.20610 | 39834 ft | 393 kts | 228° |
| 2026-05-07 23:46 | 42.90233 | 148.15356 | 39836 ft | 393 kts | 228° |
| 2026-05-07 23:46 | 42.86320 | 148.10109 | 39840 ft | 393 kts | 228° |
| 2026-05-07 23:47 | 42.82427 | 148.04898 | 39849 ft | 394 kts | 228° |
| 2026-05-07 23:47 | 42.78493 | 147.99643 | 39834 ft | 394 kts | 228° |
| 2026-05-07 23:48 | 42.74573 | 147.94416 | 39826 ft | 394 kts | 228° |
| 2026-05-07 23:48 | 42.71302 | 147.90063 | 39831 ft | 394 kts | 228° |
| 2026-05-07 23:49 | 42.67371 | 147.84839 | 39840 ft | 394 kts | 227° |
| 2026-05-07 23:49 | 42.63428 | 147.79609 | 39837 ft | 394 kts | 227° |
| 2026-05-07 23:50 | 42.59492 | 147.74399 | 39834 ft | 395 kts | 227° |
| 2026-05-07 23:50 | 42.55546 | 147.69184 | 39837 ft | 395 kts | 227° |
| 2026-05-07 23:51 | 42.51593 | 147.63970 | 39837 ft | 395 kts | 227° |
| 2026-05-07 23:51 | 42.47627 | 147.58749 | 39834 ft | 396 kts | 227° |
| 2026-05-07 23:52 | 42.43671 | 147.53550 | 39836 ft | 396 kts | 227° |
| 2026-05-07 23:52 | 42.39727 | 147.48379 | 39835 ft | 396 kts | 227° |
| 2026-05-07 23:53 | 42.35756 | 147.43173 | 39836 ft | 397 kts | 227° |
| 2026-05-07 23:53 | 42.31770 | 147.37954 | 39837 ft | 397 kts | 227° |
| 2026-05-07 23:54 | 42.27794 | 147.32756 | 39837 ft | 397 kts | 227° |
| 2026-05-07 23:54 | 42.23828 | 147.27583 | 39838 ft | 397 kts | 227° |
| 2026-05-07 23:55 | 42.19848 | 147.22401 | 39838 ft | 397 kts | 227° |
| 2026-05-07 23:55 | 42.15859 | 147.17217 | 39840 ft | 398 kts | 227° |
| 2026-05-07 23:56 | 42.11861 | 147.12030 | 39839 ft | 398 kts | 227° |
| 2026-05-07 23:56 | 42.07865 | 147.06856 | 39835 ft | 398 kts | 227° |
| 2026-05-07 23:57 | 42.03839 | 147.01654 | 39836 ft | 398 kts | 227° |
| 2026-05-07 23:57 | 41.99859 | 146.96488 | 39835 ft | 398 kts | 230° |
| 2026-05-07 23:58 | 41.96682 | 146.90402 | 39840 ft | 397 kts | 243° |
| 2026-05-07 23:58 | 41.94887 | 146.83343 | 39838 ft | 401 kts | 257° |
| 2026-05-07 23:59 | 41.94620 | 146.75807 | 39841 ft | 409 kts | 271° |
| 2026-05-07 23:59 | 41.95922 | 146.68242 | 39850 ft | 417 kts | 281° |
| 2026-05-08 00:00 | 41.97676 | 146.60853 | 39840 ft | 416 kts | 281° |
| 2026-05-08 00:00 | 41.99454 | 146.53437 | 39844 ft | 416 kts | 281° |
| 2026-05-08 00:01 | 42.01230 | 146.46032 | 39841 ft | 415 kts | 281° |
| 2026-05-08 00:01 | 42.03009 | 146.38600 | 39844 ft | 415 kts | 281° |
| 2026-05-08 00:02 | 42.04783 | 146.31163 | 39843 ft | 415 kts | 281° |
| 2026-05-08 00:02 | 42.06546 | 146.23747 | 39844 ft | 414 kts | 281° |
| 2026-05-08 00:03 | 42.08319 | 146.16270 | 39846 ft | 414 kts | 280° |
| 2026-05-08 00:03 | 42.09185 | 146.12608 | 39709 ft | 416 kts | 280° |
| 2026-05-08 00:03 | 42.10066 | 146.08876 | 39143 ft | 417 kts | 280° |
| 2026-05-08 00:04 | 42.10951 | 146.05125 | 38588 ft | 418 kts | 280° |
| 2026-05-08 00:04 | 42.11831 | 146.01388 | 37939 ft | 417 kts | 280° |
| 2026-05-08 00:04 | 42.12710 | 145.97644 | 37327 ft | 417 kts | 280° |
| 2026-05-08 00:04 | 42.13585 | 145.93913 | 36744 ft | 415 kts | 280° |
| 2026-05-08 00:05 | 42.14444 | 145.90242 | 36167 ft | 415 kts | 280° |
| 2026-05-08 00:05 | 42.15315 | 145.86515 | 35549 ft | 416 kts | 280° |
| 2026-05-08 00:05 | 42.16183 | 145.82796 | 34954 ft | 416 kts | 281° |
| 2026-05-08 00:05 | 42.17054 | 145.79057 | 34357 ft | 417 kts | 281° |
| 2026-05-08 00:06 | 42.17929 | 145.75294 | 33733 ft | 418 kts | 281° |
| 2026-05-08 00:06 | 42.18802 | 145.71538 | 33057 ft | 419 kts | 281° |
| 2026-05-08 00:06 | 42.19675 | 145.67775 | 32404 ft | 420 kts | 281° |
| 2026-05-08 00:06 | 42.20547 | 145.64009 | 31762 ft | 421 kts | 281° |
| 2026-05-08 00:07 | 42.21421 | 145.60228 | 31121 ft | 422 kts | 281° |
| 2026-05-08 00:07 | 42.22399 | 145.56453 | 30469 ft | 428 kts | 285° |
| 2026-05-08 00:07 | 42.23649 | 145.52777 | 29793 ft | 435 kts | 290° |
| 2026-05-08 00:07 | 42.25178 | 145.49221 | 29048 ft | 442 kts | 295° |
| 2026-05-08 00:08 | 42.26994 | 145.45806 | 28384 ft | 447 kts | 300° |
| 2026-05-08 00:08 | 42.28968 | 145.42547 | 27769 ft | 448 kts | 301° |
| 2026-05-08 00:08 | 42.30975 | 145.39311 | 27366 ft | 450 kts | 301° |
| 2026-05-08 00:08 | 42.32985 | 145.36088 | 26942 ft | 448 kts | 301° |
| 2026-05-08 00:09 | 42.35004 | 145.32850 | 26488 ft | 444 kts | 301° |
| 2026-05-08 00:09 | 42.36989 | 145.29660 | 26045 ft | 441 kts | 301° |
| 2026-05-08 00:09 | 42.38955 | 145.26493 | 25588 ft | 437 kts | 301° |
| 2026-05-08 00:09 | 42.40912 | 145.23333 | 25129 ft | 433 kts | 301° |
| 2026-05-08 00:10 | 42.42841 | 145.20213 | 24676 ft | 429 kts | 300° |
| 2026-05-08 00:10 | 42.44748 | 145.17124 | 24215 ft | 426 kts | 300° |
| 2026-05-08 00:10 | 42.46639 | 145.14057 | 23769 ft | 423 kts | 300° |
| 2026-05-08 00:10 | 42.48531 | 145.10983 | 23277 ft | 420 kts | 300° |
| 2026-05-08 00:11 | 42.50393 | 145.07952 | 22776 ft | 416 kts | 300° |
| 2026-05-08 00:11 | 42.52242 | 145.04938 | 22294 ft | 412 kts | 300° |
| 2026-05-08 00:11 | 42.54054 | 145.01985 | 21824 ft | 408 kts | 300° |
| 2026-05-08 00:11 | 42.55862 | 144.99035 | 21373 ft | 404 kts | 300° |
| 2026-05-08 00:12 | 42.57668 | 144.96085 | 20919 ft | 401 kts | 300° |
| 2026-05-08 00:12 | 42.59447 | 144.93177 | 20464 ft | 398 kts | 300° |
| 2026-05-08 00:12 | 42.61214 | 144.90287 | 20005 ft | 395 kts | 300° |
| 2026-05-08 00:12 | 42.62963 | 144.87423 | 19569 ft | 392 kts | 300° |
| 2026-05-08 00:13 | 42.64705 | 144.84566 | 19104 ft | 389 kts | 300° |
| 2026-05-08 00:13 | 42.66433 | 144.81731 | 18673 ft | 387 kts | 300° |
| 2026-05-08 00:13 | 42.68143 | 144.78922 | 18233 ft | 384 kts | 300° |
| 2026-05-08 00:13 | 42.69844 | 144.76125 | 17744 ft | 382 kts | 300° |
| 2026-05-08 00:14 | 42.71538 | 144.73334 | 17279 ft | 379 kts | 300° |
| 2026-05-08 00:14 | 42.73218 | 144.70565 | 16835 ft | 375 kts | 301° |
| 2026-05-08 00:14 | 42.74847 | 144.67879 | 16395 ft | 372 kts | 301° |
| 2026-05-08 00:14 | 42.76519 | 144.65119 | 15947 ft | 369 kts | 301° |
| 2026-05-08 00:15 | 42.78166 | 144.62397 | 15511 ft | 366 kts | 301° |
| 2026-05-08 00:15 | 42.79782 | 144.59724 | 15074 ft | 364 kts | 301° |
| 2026-05-08 00:15 | 42.81397 | 144.57050 | 14637 ft | 362 kts | 302° |
| 2026-05-08 00:15 | 42.82993 | 144.54406 | 14193 ft | 360 kts | 302° |
| 2026-05-08 00:16 | 42.84591 | 144.51758 | 13786 ft | 358 kts | 302° |
| 2026-05-08 00:16 | 42.86174 | 144.49132 | 13353 ft | 355 kts | 302° |
| 2026-05-08 00:16 | 42.87720 | 144.46565 | 12941 ft | 352 kts | 302° |
| 2026-05-08 00:16 | 42.89270 | 144.43990 | 12568 ft | 348 kts | 303° |
| 2026-05-08 00:17 | 42.90807 | 144.41435 | 12194 ft | 344 kts | 303° |
| 2026-05-08 00:17 | 42.92318 | 144.38920 | 11817 ft | 341 kts | 303° |
| 2026-05-08 00:17 | 42.93824 | 144.36411 | 11482 ft | 337 kts | 303° |
| 2026-05-08 00:17 | 42.95303 | 144.33946 | 11148 ft | 334 kts | 303° |
| 2026-05-08 00:18 | 42.96772 | 144.31493 | 10816 ft | 332 kts | 303° |
| 2026-05-08 00:18 | 42.98220 | 144.29079 | 10711 ft | 320 kts | 303° |
| 2026-05-08 00:18 | 42.99608 | 144.26772 | 10653 ft | 305 kts | 303° |
| 2026-05-08 00:18 | 43.00930 | 144.24571 | 10593 ft | 292 kts | 303° |
| 2026-05-08 00:19 | 43.02445 | 144.22728 | 10409 ft | 296 kts | 324° |
| 2026-05-08 00:19 | 43.04381 | 144.21892 | 10331 ft | 300 kts | 347° |
| 2026-05-08 00:19 | 43.06500 | 144.22208 | 10189 ft | 308 kts | 13° |
| 2026-05-08 00:19 | 43.08426 | 144.23499 | 10070 ft | 307 kts | 24° |
| 2026-05-08 00:20 | 43.10246 | 144.24965 | 9905 ft | 307 kts | 25° |
| 2026-05-08 00:20 | 43.12082 | 144.26462 | 9579 ft | 306 kts | 25° |
| 2026-05-08 00:20 | 43.13931 | 144.27946 | 9270 ft | 304 kts | 24° |
| 2026-05-08 00:20 | 43.15756 | 144.29387 | 8990 ft | 302 kts | 24° |
| 2026-05-08 00:21 | 43.17586 | 144.30816 | 8723 ft | 298 kts | 23° |
| 2026-05-08 00:21 | 43.19390 | 144.32217 | 8464 ft | 295 kts | 23° |
| 2026-05-08 00:21 | 43.21173 | 144.33596 | 8216 ft | 293 kts | 23° |
| 2026-05-08 00:21 | 43.22956 | 144.34974 | 7968 ft | 290 kts | 24° |
| 2026-05-08 00:22 | 43.24684 | 144.36312 | 7727 ft | 287 kts | 24° |
| 2026-05-08 00:22 | 43.26425 | 144.37660 | 7485 ft | 284 kts | 24° |
| 2026-05-08 00:22 | 43.28146 | 144.38994 | 7241 ft | 282 kts | 24° |
| 2026-05-08 00:22 | 43.29846 | 144.40313 | 7031 ft | 278 kts | 24° |
| 2026-05-08 00:23 | 43.31536 | 144.41624 | 6800 ft | 276 kts | 24° |
| 2026-05-08 00:23 | 43.33203 | 144.42917 | 6570 ft | 273 kts | 24° |
| 2026-05-08 00:23 | 43.34832 | 144.44182 | 6373 ft | 271 kts | 24° |
| 2026-05-08 00:23 | 43.36499 | 144.45477 | 6153 ft | 269 kts | 24° |
| 2026-05-08 00:24 | 43.38097 | 144.46717 | 5938 ft | 267 kts | 24° |
| 2026-05-08 00:24 | 43.39732 | 144.47987 | 5746 ft | 265 kts | 25° |
| 2026-05-08 00:24 | 43.41330 | 144.49228 | 5554 ft | 264 kts | 25° |
| 2026-05-08 00:24 | 43.42947 | 144.50485 | 5390 ft | 262 kts | 26° |
| 2026-05-08 00:25 | 43.44523 | 144.51714 | 5224 ft | 261 kts | 26° |
| 2026-05-08 00:25 | 43.46095 | 144.52966 | 5046 ft | 261 kts | 32° |
| 2026-05-08 00:25 | 43.47365 | 144.54742 | 4973 ft | 262 kts | 56° |
| 2026-05-08 00:25 | 43.48144 | 144.57039 | 4618 ft | 266 kts | 69° |
| 2026-05-08 00:26 | 43.48756 | 144.59465 | 4178 ft | 270 kts | 71° |
| 2026-05-08 00:26 | 43.49339 | 144.61919 | 3940 ft | 264 kts | 72° |
| 2026-05-08 00:26 | 43.49904 | 144.64293 | 3815 ft | 256 kts | 71° |
| 2026-05-08 00:26 | 43.50461 | 144.66594 | 3602 ft | 246 kts | 71° |
| 2026-05-08 00:27 | 43.50989 | 144.68750 | 3450 ft | 230 kts | 71° |
| 2026-05-08 00:27 | 43.51481 | 144.70743 | 3351 ft | 212 kts | 71° |
| 2026-05-08 00:27 | 43.51939 | 144.72596 | 3258 ft | 197 kts | 71° |
| 2026-05-08 00:27 | 43.52372 | 144.74348 | 3133 ft | 191 kts | 71° |
| 2026-05-08 00:28 | 43.52800 | 144.76076 | 3002 ft | 188 kts | 71° |
| 2026-05-08 00:28 | 43.53221 | 144.77781 | 2865 ft | 187 kts | 71° |
| 2026-05-08 00:28 | 43.53643 | 144.79480 | 2615 ft | 184 kts | 71° |
| 2026-05-08 00:28 | 43.54053 | 144.81138 | 2363 ft | 176 kts | 71° |
| 2026-05-08 00:29 | 43.54436 | 144.82682 | 2090 ft | 164 kts | 71° |
| 2026-05-08 00:29 | 43.54792 | 144.84116 | 1864 ft | 153 kts | 71° |
| 2026-05-08 00:29 | 43.55137 | 144.85504 | 1677 ft | 152 kts | 72° |
| 2026-05-08 00:29 | 43.55480 | 144.86891 | 1470 ft | 151 kts | 71° |
| 2026-05-08 00:30 | 43.55818 | 144.88252 | 1273 ft | 151 kts | 71° |
| 2026-05-08 00:30 | 43.56159 | 144.89624 | 1075 ft | 151 kts | 71° |
| 2026-05-08 00:30 | 43.56500 | 144.90994 | 826 ft | 150 kts | 71° |
| 2026-05-08 00:30 | 43.56837 | 144.92360 | 593 ft | 149 kts | 70° |
| 2026-05-08 00:31 | 43.57175 | 144.93716 | 404 ft | 148 kts | 69° |
| 2026-05-08 00:31 | 43.57515 | 144.95052 | 241 ft | 145 kts | 71° |
| 2026-05-08 00:31 | 43.57759 | 144.96043 | 235 ft | 66 kts | 71° |
| 2026-05-08 00:31 | 43.57855 | 144.96429 | 237 ft | 34 kts | 71° |
| 2026-05-08 00:32 | 43.57932 | 144.96733 | 240 ft | 33 kts | 71° |
| 2026-05-08 00:32 | 43.57993 | 144.96999 | 237 ft | 21 kts | 87° |
| 2026-05-08 00:32 | 43.58013 | 144.97111 | 236 ft | 3 kts | 343° |
| 2026-05-08 00:32 | 43.58014 | 144.97064 | 239 ft | 9 kts | 252° |
| 2026-05-08 00:33 | 43.57972 | 144.96895 | 238 ft | 25 kts | 250° |
| 2026-05-08 00:33 | 43.57914 | 144.96664 | 240 ft | 26 kts | 251° |
| 2026-05-08 00:33 | 43.57853 | 144.96414 | 237 ft | 28 kts | 251° |
| 2026-05-08 00:33 | 43.57787 | 144.96152 | 235 ft | 30 kts | 250° |
| 2026-05-08 00:34 | 43.57717 | 144.95874 | 236 ft | 31 kts | 251° |
| 2026-05-08 00:34 | 43.57649 | 144.95597 | 237 ft | 26 kts | 251° |
| 2026-05-08 00:34 | 43.57621 | 144.95496 | 236 ft | 7 kts | 233° |
| 2026-05-08 00:34 | 43.57568 | 144.95482 | 235 ft | 11 kts | 163° |
| 2026-05-08 00:35 | 43.57485 | 144.95522 | 233 ft | 14 kts | 160° |
| 2026-05-08 00:35 | 43.57405 | 144.95511 | 233 ft | 11 kts | 193° |
| 2026-05-08 00:35 | 43.57364 | 144.95517 | 234 ft | 0 kts | 160° |
| 2026-05-08 00:35 | 43.57361 | 144.95519 | 236 ft | 2 kts | 160° |
| 2026-05-08 00:36 | 43.57355 | 144.95521 | 235 ft | 0 kts | 160° |